createdAt,value
2018-10-05T00:00:17.904Z,9.02
2018-10-05T00:02:47.078Z,9.17
2018-10-05T00:05:17.648Z,9.08
2018-10-05T00:07:46.875Z,9.13
2018-10-05T00:10:17.820Z,9.03
2018-10-05T00:12:47.065Z,9.06
2018-10-05T00:15:17.077Z,9.15
2018-10-05T00:17:46.221Z,9.14
2018-10-05T00:20:16.869Z,8.95
2018-10-05T00:22:46.027Z,8.92
2018-10-05T00:25:16.807Z,8.85
2018-10-05T00:27:45.965Z,8.85
2018-10-05T00:30:16.333Z,8.89
2018-10-05T00:32:45.481Z,8.86
2018-10-05T00:35:16.319Z,8.79
2018-10-05T00:37:45.544Z,8.77
2018-10-05T00:40:15.706Z,8.72
2018-10-05T00:42:44.924Z,8.69
2018-10-05T00:45:15.529Z,8.73
2018-10-05T00:47:44.684Z,8.75
2018-10-05T00:50:15.658Z,8.82
2018-10-05T00:52:44.805Z,8.77
2018-10-05T00:55:14.778Z,8.76
2018-10-05T00:57:43.940Z,8.76
2018-10-05T01:00:13.284Z,8.82
2018-10-05T01:02:42.427Z,8.77
2018-10-05T01:05:11.665Z,8.73
2018-10-05T01:07:40.804Z,8.71
2018-10-05T01:10:10.023Z,8.64
2018-10-05T01:12:39.188Z,8.58
2018-10-05T01:15:08.403Z,8.61
2018-10-05T01:17:37.567Z,8.57
2018-10-05T01:20:06.781Z,8.52
2018-10-05T01:22:35.954Z,8.51
2018-10-05T01:25:05.195Z,8.52
2018-10-05T01:27:34.396Z,8.58
2018-10-05T01:30:03.630Z,8.70
2018-10-05T01:32:32.874Z,8.77
2018-10-05T01:35:02.013Z,8.65
2018-10-05T01:37:31.190Z,8.62
2018-10-05T01:40:00.344Z,8.57
2018-10-05T01:42:29.595Z,8.48
2018-10-05T01:44:58.810Z,8.59
2018-10-05T01:47:28.024Z,8.46
2018-10-05T01:49:57.163Z,8.29
2018-10-05T01:52:26.360Z,8.40
2018-10-05T01:54:55.495Z,8.30
2018-10-05T01:57:24.676Z,8.17
2018-10-05T01:59:53.825Z,8.11
2018-10-05T02:02:23.046Z,8.04
2018-10-05T02:04:52.156Z,8.16
2018-10-05T02:07:21.361Z,8.22
2018-10-05T02:09:50.559Z,8.21
2018-10-05T02:12:19.763Z,8.01
2018-10-05T02:14:48.928Z,8.03
2018-10-05T02:17:18.407Z,7.94
2018-10-05T02:19:47.624Z,7.95
2018-10-05T02:22:16.805Z,8.05
2018-10-05T02:24:45.933Z,8.08
2018-10-05T02:27:15.592Z,8.00
2018-10-05T02:29:44.730Z,7.97
2018-10-05T02:32:14.570Z,7.97
2018-10-05T02:34:43.731Z,7.82
2018-10-05T02:37:13.065Z,7.85
2018-10-05T02:39:42.215Z,7.81
2018-10-05T02:42:12.531Z,7.80
2018-10-05T02:44:41.704Z,7.89
2018-10-05T02:47:11.036Z,7.86
2018-10-05T02:49:40.170Z,7.75
2018-10-05T02:52:09.392Z,7.72
2018-10-05T02:54:38.547Z,7.62
2018-10-05T02:57:07.748Z,7.70
2018-10-05T02:59:36.894Z,7.64
2018-10-05T03:02:32.200Z,7.55
2018-10-05T03:07:41.148Z,7.38
2018-10-05T03:10:10.372Z,7.40
2018-10-05T03:12:39.600Z,7.40
2018-10-05T03:15:08.797Z,7.44
2018-10-05T03:17:38.000Z,7.56
2018-10-05T03:20:07.221Z,7.47
2018-10-05T03:22:36.413Z,7.61
2018-10-05T03:25:05.820Z,7.51
2018-10-05T03:27:35.026Z,7.51
2018-10-05T03:30:04.436Z,7.58
2018-10-05T03:32:33.642Z,7.63
2018-10-05T03:35:02.864Z,7.88
2018-10-05T03:37:32.179Z,7.66
2018-10-05T03:40:01.427Z,7.62
2018-10-05T03:42:30.613Z,7.50
2018-10-05T03:44:59.783Z,7.37
2018-10-05T03:47:29.009Z,7.37
2018-10-05T03:49:59.239Z,7.31
2018-10-05T03:52:28.443Z,7.27
2018-10-05T03:54:57.643Z,7.39
2018-10-05T03:57:26.853Z,7.32
2018-10-05T03:59:56.270Z,7.32
2018-10-05T04:02:25.460Z,7.33
2018-10-05T04:04:54.639Z,7.24
2018-10-05T04:07:23.916Z,7.25
2018-10-05T04:09:53.054Z,7.24
2018-10-05T04:12:22.565Z,7.23
2018-10-05T04:14:51.740Z,7.33
2018-10-05T04:17:20.936Z,7.29
2018-10-05T04:19:50.126Z,7.34
2018-10-05T04:22:33.684Z,7.19
2018-10-05T04:25:02.849Z,7.11
2018-10-05T04:27:32.030Z,7.11
2018-10-05T04:30:01.210Z,7.08
2018-10-05T04:32:30.408Z,7.10
2018-10-05T04:34:59.580Z,7.15
2018-10-05T04:37:28.902Z,7.11
2018-10-05T04:39:58.074Z,7.03
2018-10-05T04:42:27.299Z,7.07
2018-10-05T04:44:56.508Z,7.10
2018-10-05T04:47:25.935Z,7.09
2018-10-05T04:49:55.127Z,7.13
2018-10-05T04:52:24.304Z,7.16
2018-10-05T04:54:53.663Z,7.18
2018-10-05T04:57:22.864Z,7.18
2018-10-05T04:59:52.083Z,7.22
2018-10-05T05:02:21.280Z,7.23
2018-10-05T05:04:50.490Z,7.21
2018-10-05T05:07:19.683Z,7.13
2018-10-05T05:09:48.894Z,7.09
2018-10-05T05:12:18.192Z,7.02
2018-10-05T05:14:47.259Z,7.04
2018-10-05T05:17:16.544Z,6.96
2018-10-05T05:19:45.768Z,6.98
2018-10-05T05:22:14.969Z,6.99
2018-10-05T05:24:44.441Z,7.05
2018-10-05T05:27:13.599Z,6.97
2018-10-05T05:29:42.750Z,6.90
2018-10-05T05:32:11.944Z,7.09
2018-10-05T05:34:41.125Z,7.06
2018-10-05T05:37:10.308Z,7.10
2018-10-05T05:39:39.526Z,7.15
2018-10-05T05:42:09.162Z,7.19
2018-10-05T05:44:38.311Z,7.32
2018-10-05T05:47:08.418Z,7.39
2018-10-05T05:49:37.611Z,7.42
2018-10-05T05:52:07.423Z,7.49
2018-10-05T05:54:36.631Z,7.99
2018-10-05T05:57:06.030Z,8.57
2018-10-05T05:59:35.197Z,9.43
2018-10-05T06:02:04.413Z,10.07
2018-10-05T06:04:33.605Z,10.64
2018-10-05T06:07:02.837Z,11.43
2018-10-05T06:09:32.014Z,12.21
2018-10-05T06:12:01.218Z,12.76
2018-10-05T06:14:30.382Z,12.76
2018-10-05T06:17:00.560Z,13.67
2018-10-05T06:19:29.787Z,13.90
2018-10-05T06:21:59.114Z,13.21
2018-10-05T06:24:28.169Z,13.60
2018-10-05T06:26:57.502Z,13.95
2018-10-05T06:29:26.658Z,13.25
2018-10-05T06:31:55.876Z,12.73
2018-10-05T06:34:25.046Z,12.78
2018-10-05T06:36:54.283Z,12.56
2018-10-05T06:39:23.655Z,13.31
2018-10-05T06:41:52.889Z,12.96
2018-10-05T06:44:22.092Z,13.28
2018-10-05T06:46:51.341Z,12.52
2018-10-05T06:49:20.698Z,13.29
2018-10-05T06:51:49.958Z,13.36
2018-10-05T06:54:19.487Z,13.98
2018-10-05T06:56:48.745Z,13.67
2018-10-05T06:59:17.920Z,12.63
2018-10-05T07:01:47.164Z,13.03
2018-10-05T07:04:16.285Z,15.17
2018-10-05T07:06:45.508Z,16.19
2018-10-05T07:09:14.702Z,14.97
2018-10-05T07:11:43.927Z,14.54
2018-10-05T07:14:13.919Z,15.34
2018-10-05T07:16:43.336Z,14.42
2018-10-05T07:19:12.528Z,15.27
2018-10-05T07:21:42.115Z,14.96
2018-10-05T07:24:11.303Z,15.53
2018-10-05T07:26:40.620Z,16.61
2018-10-05T07:29:10.362Z,17.35
2018-10-05T07:31:39.559Z,16.03
2018-10-05T07:49:11.923Z,15.55
2018-10-05T07:51:41.223Z,16.79
2018-10-05T07:54:10.581Z,16.17
2018-10-05T07:56:39.795Z,16.10
2018-10-05T07:59:09.531Z,15.75
2018-10-05T08:01:38.755Z,15.75
2018-10-05T08:04:08.293Z,16.18
2018-10-05T08:06:37.526Z,15.23
2018-10-05T08:09:07.350Z,15.44
2018-10-05T08:11:36.583Z,14.75
2018-10-05T08:14:05.792Z,14.98
2018-10-05T08:16:35.055Z,14.54
2018-10-05T08:19:04.247Z,14.87
2018-10-05T08:21:33.563Z,14.37
2018-10-05T08:24:02.708Z,14.32
2018-10-05T08:26:31.958Z,15.30
2018-10-05T08:29:01.112Z,15.38
2018-10-05T08:31:30.324Z,14.64
2018-10-05T08:33:59.567Z,14.41
2018-10-05T08:36:28.736Z,15.21
2018-10-05T08:38:57.951Z,15.62
2018-10-05T08:41:27.493Z,14.94
2018-10-05T08:43:56.711Z,14.36
2018-10-05T08:46:25.932Z,14.91
2018-10-05T08:48:55.130Z,14.06
2018-10-05T08:51:24.391Z,13.48
2018-10-05T08:53:53.576Z,13.42
2018-10-05T08:56:22.801Z,13.10
2018-10-05T08:58:51.992Z,13.15
2018-10-05T09:01:21.190Z,13.13
2018-10-05T09:03:50.380Z,13.69
2018-10-05T09:06:19.645Z,13.94
2018-10-05T09:08:48.827Z,13.48
2018-10-05T09:11:18.115Z,14.08
2018-10-05T09:13:47.313Z,14.00
2018-10-05T09:16:16.531Z,14.35
2018-10-05T09:18:45.746Z,14.35
2018-10-05T09:21:14.955Z,14.62
2018-10-05T09:23:44.173Z,14.79
2018-10-05T09:26:13.385Z,14.19
2018-10-05T09:28:42.589Z,14.04
2018-10-05T09:31:11.841Z,13.71
2018-10-05T09:33:41.079Z,13.71
2018-10-05T09:36:10.535Z,13.92
2018-10-05T09:38:39.727Z,14.57
2018-10-05T09:41:09.385Z,14.12
2018-10-05T09:43:38.590Z,14.49
2018-10-05T09:46:08.250Z,14.48
2018-10-05T09:48:37.442Z,14.38
2018-10-05T09:51:06.684Z,14.78
2018-10-05T09:53:35.906Z,14.99
2018-10-05T09:56:05.146Z,15.00
2018-10-05T09:58:34.897Z,14.92
2018-10-05T10:01:10.528Z,14.76
2018-10-05T10:03:40.899Z,14.62
2018-10-05T10:06:12.919Z,15.03
2018-10-05T10:08:43.427Z,15.44
2018-10-05T10:11:12.636Z,15.13
2018-10-05T10:13:42.079Z,15.52
2018-10-05T10:16:11.279Z,15.35
2018-10-05T10:18:40.587Z,15.43
2018-10-05T10:21:10.105Z,15.69
2018-10-05T10:23:39.314Z,15.42
2018-10-05T10:26:09.213Z,15.93
2018-10-05T10:28:38.452Z,15.67
2018-10-05T10:31:08.855Z,15.59
2018-10-05T10:33:38.085Z,15.89
2018-10-05T10:36:07.649Z,16.19
2018-10-05T10:38:36.845Z,16.38
2018-10-05T10:41:06.279Z,16.41
2018-10-05T10:43:35.501Z,16.18
2018-10-05T10:46:04.708Z,16.11
2018-10-05T10:48:33.958Z,16.11
2018-10-05T10:51:03.166Z,16.24
2018-10-05T10:53:32.439Z,16.18
2018-10-05T10:56:01.716Z,16.50
2018-10-05T10:58:30.899Z,16.83
2018-10-05T11:01:00.147Z,17.03
2018-10-05T11:03:35.964Z,17.33
2018-10-05T11:06:05.207Z,17.34
2018-10-05T11:08:35.658Z,17.34
2018-10-05T11:11:04.833Z,17.41
2018-10-05T11:13:34.160Z,17.67
2018-10-05T11:16:03.323Z,17.66
2018-10-05T11:18:32.509Z,17.57
2018-10-05T11:21:01.747Z,17.62
2018-10-05T11:23:31.038Z,17.88
2018-10-05T11:26:00.275Z,17.95
2018-10-05T11:28:29.473Z,17.96
2018-10-05T11:30:59.533Z,17.88
2018-10-05T11:33:28.748Z,18.19
2018-10-05T11:35:57.944Z,18.38
2018-10-05T11:38:27.216Z,18.56
2018-10-05T11:40:56.642Z,18.66
2018-10-05T11:43:25.790Z,18.72
2018-10-05T11:45:55.029Z,18.53
2018-10-05T11:48:24.264Z,18.41
2018-10-05T11:50:53.515Z,18.26
2018-10-05T11:53:22.777Z,18.11
2018-10-05T11:55:52.009Z,18.24
2018-10-05T11:58:21.249Z,18.33
2018-10-05T12:00:50.531Z,18.36
2018-10-05T12:03:19.712Z,18.34
2018-10-05T12:05:48.925Z,18.50
2018-10-05T12:08:18.103Z,18.54
2018-10-05T12:10:47.300Z,18.52
2018-10-05T12:13:16.521Z,18.71
2018-10-05T12:15:45.743Z,18.74
2018-10-05T12:18:14.983Z,18.79
2018-10-05T12:20:44.225Z,18.81
2018-10-05T12:23:13.413Z,18.80
2018-10-05T12:25:42.687Z,18.73
2018-10-05T12:28:11.875Z,18.94
2018-10-05T12:30:41.120Z,19.16
2018-10-05T12:33:10.927Z,19.16
2018-10-05T12:35:40.137Z,19.17
2018-10-05T12:38:09.896Z,19.51
2018-10-05T12:40:39.098Z,19.40
2018-10-05T12:43:08.744Z,19.23
2018-10-05T12:45:37.942Z,19.29
2018-10-05T12:48:07.355Z,19.31
2018-10-05T12:50:36.622Z,19.41
2018-10-05T12:53:05.864Z,19.37
2018-10-05T12:55:35.064Z,19.46
2018-10-05T12:58:04.323Z,19.40
2018-10-05T13:00:33.611Z,19.35
2018-10-05T13:03:02.784Z,19.49
2018-10-05T13:05:32.016Z,19.78
2018-10-05T13:08:01.213Z,19.86
2018-10-05T13:10:30.535Z,20.05
2018-10-05T13:12:59.784Z,19.84
2018-10-05T13:15:29.048Z,20.10
2018-10-05T13:17:58.271Z,20.03
2018-10-05T13:20:27.506Z,19.91
2018-10-05T13:22:56.718Z,20.21
2018-10-05T13:25:25.949Z,20.03
2018-10-05T13:27:55.120Z,20.06
2018-10-05T13:30:24.398Z,20.04
2018-10-05T13:32:53.563Z,20.20
2018-10-05T13:35:22.817Z,20.21
2018-10-05T13:37:52.108Z,20.29
2018-10-05T13:40:21.366Z,20.38
2018-10-05T13:42:50.568Z,20.47
2018-10-05T13:45:20.017Z,20.21
2018-10-05T13:47:49.220Z,20.11
2018-10-05T13:50:18.496Z,20.21
2018-10-05T13:52:47.700Z,20.37
2018-10-05T13:55:16.979Z,20.38
2018-10-05T13:57:46.216Z,20.17
2018-10-05T14:00:15.392Z,20.26
2018-10-05T14:02:44.658Z,20.46
2018-10-05T14:05:13.883Z,20.48
2018-10-05T14:07:43.176Z,20.38
2018-10-05T14:10:12.550Z,20.41
2018-10-05T14:12:42.465Z,20.50
2018-10-05T14:15:11.970Z,20.45
2018-10-05T14:17:41.279Z,20.38
2018-10-05T14:20:11.847Z,20.46
2018-10-05T14:22:41.048Z,20.53
2018-10-05T14:25:11.571Z,20.47
2018-10-05T14:27:40.852Z,20.44
2018-10-05T14:30:10.058Z,20.43
2018-10-05T14:32:39.546Z,20.31
2018-10-05T14:35:09.421Z,20.23
2018-10-05T14:37:38.613Z,20.20
2018-10-05T14:40:08.411Z,20.31
2018-10-05T14:42:37.590Z,20.32
2018-10-05T14:45:07.485Z,20.35
2018-10-05T14:47:36.644Z,20.27
2018-10-05T14:50:05.933Z,20.16
2018-10-05T14:52:35.164Z,20.11
2018-10-05T14:55:04.340Z,20.03
2018-10-05T14:57:33.656Z,20.14
2018-10-05T15:00:02.881Z,20.05
2018-10-05T15:02:32.100Z,20.04
2018-10-05T15:05:01.311Z,20.13
2018-10-05T15:07:30.526Z,20.06
2018-10-05T15:09:59.931Z,19.99
2018-10-05T15:12:29.348Z,19.98
2018-10-05T15:14:58.503Z,19.83
2018-10-05T15:17:27.858Z,19.87
2018-10-05T15:19:57.066Z,19.91
2018-10-05T15:22:26.413Z,19.81
2018-10-05T15:24:55.934Z,19.80
2018-10-05T15:27:25.165Z,19.70
2018-10-05T15:29:54.468Z,19.73
2018-10-05T15:32:23.679Z,19.71
2018-10-05T15:34:52.940Z,19.62
2018-10-05T15:37:22.168Z,19.61
2018-10-05T15:39:52.090Z,19.62
2018-10-05T15:42:21.336Z,19.60
2018-10-05T15:44:51.849Z,19.51
2018-10-05T15:47:21.081Z,19.42
2018-10-05T15:49:51.432Z,19.41
2018-10-05T15:52:20.696Z,19.54
2018-10-05T15:54:49.860Z,19.49
2018-10-05T15:57:19.103Z,19.38
2018-10-05T15:59:49.048Z,19.33
2018-10-05T16:02:18.277Z,19.38
2018-10-05T16:04:47.443Z,19.25
2018-10-05T16:07:16.649Z,19.08
2018-10-05T16:09:46.009Z,19.11
2018-10-05T16:12:15.247Z,19.03
2018-10-05T16:14:44.405Z,18.88
2018-10-05T16:17:13.674Z,18.79
2018-10-05T16:19:42.848Z,18.70
2018-10-05T16:22:12.407Z,18.63
2018-10-05T16:24:43.798Z,18.55
2018-10-05T16:27:13.573Z,18.47
2018-10-05T16:29:43.368Z,18.38
2018-10-05T16:32:12.894Z,18.27
2018-10-05T16:34:42.175Z,18.19
2018-10-05T16:37:11.581Z,18.14
2018-10-05T16:39:40.740Z,18.02
2018-10-05T16:42:10.802Z,17.93
2018-10-05T16:44:39.999Z,17.88
2018-10-05T16:47:09.612Z,17.84
2018-10-05T16:49:38.876Z,17.82
2018-10-05T16:52:08.577Z,17.76
2018-10-05T16:54:37.778Z,17.70
2018-10-05T16:57:07.341Z,17.61
2018-10-05T16:59:36.467Z,17.60
2018-10-05T17:02:06.087Z,17.54
2018-10-05T17:04:35.523Z,17.46
2018-10-05T17:07:04.725Z,17.39
2018-10-05T17:09:34.008Z,17.29
2018-10-05T17:12:03.247Z,17.22
2018-10-05T17:14:32.423Z,17.16
2018-10-05T17:17:01.653Z,17.11
2018-10-05T17:19:30.895Z,17.06
2018-10-05T17:22:00.151Z,17.08
2018-10-05T17:24:29.372Z,17.11
2018-10-05T17:26:58.623Z,17.05
2018-10-05T17:29:27.928Z,16.96
2018-10-05T17:31:57.106Z,16.86
2018-10-05T17:34:26.382Z,16.82
2018-10-05T17:36:55.697Z,16.81
2018-10-05T17:39:25.132Z,16.73
2018-10-05T17:41:54.344Z,16.70
2018-10-05T17:44:23.581Z,16.63
2018-10-05T17:46:52.906Z,16.51
2018-10-05T17:49:22.103Z,16.45
2018-10-05T17:51:51.320Z,16.44
2018-10-05T17:54:20.519Z,16.37
2018-10-05T17:56:49.737Z,16.37
2018-10-05T17:59:19.023Z,16.34
2018-10-05T18:01:48.268Z,16.29
2018-10-05T18:04:17.456Z,16.16
2018-10-05T18:06:46.672Z,16.08
2018-10-05T18:09:15.890Z,15.97
2018-10-05T18:11:45.159Z,15.88
2018-10-05T18:14:15.416Z,15.84
2018-10-05T18:16:44.658Z,15.78
2018-10-05T18:19:14.637Z,15.70
2018-10-05T18:21:43.892Z,15.59
2018-10-05T18:24:14.025Z,15.58
2018-10-05T18:26:43.277Z,15.58
2018-10-05T18:29:12.457Z,15.74
2018-10-05T18:31:41.707Z,15.75
2018-10-05T18:34:10.927Z,15.78
2018-10-05T18:36:40.115Z,15.73
2018-10-05T18:39:12.460Z,15.67
2018-10-05T18:41:41.722Z,15.72
2018-10-05T18:44:11.001Z,15.74
2018-10-05T18:46:40.141Z,15.74
2018-10-05T18:49:09.344Z,15.71
2018-10-05T18:51:38.552Z,15.58
2018-10-05T18:54:07.729Z,15.49
2018-10-05T18:56:48.120Z,15.34
2018-10-05T18:59:17.295Z,15.24
2018-10-05T19:01:46.528Z,15.14
2018-10-05T19:04:15.914Z,15.07
2018-10-05T19:06:45.228Z,14.98
2018-10-05T19:09:14.932Z,14.91
2018-10-05T19:11:44.192Z,14.82
2018-10-05T19:14:13.907Z,14.71
2018-10-05T19:16:43.728Z,14.66
2018-10-05T19:19:13.273Z,14.64
2018-10-05T19:21:42.555Z,14.63
2018-10-05T19:24:11.734Z,14.61
2018-10-05T19:26:41.005Z,14.55
2018-10-05T19:29:10.383Z,14.52
2018-10-05T19:31:39.648Z,14.49
2018-10-05T19:34:08.847Z,14.44
2018-10-05T19:36:38.184Z,14.38
2018-10-05T19:39:09.693Z,14.30
2018-10-05T19:41:39.763Z,14.31
2018-10-05T19:44:09.871Z,14.27
2018-10-05T19:46:39.198Z,14.25
2018-10-05T19:49:08.471Z,14.22
2018-10-05T19:51:37.751Z,14.18
2018-10-05T19:54:07.058Z,14.10
2018-10-05T19:56:36.387Z,14.09
2018-10-05T19:59:05.734Z,14.09
2018-10-05T20:01:35.016Z,14.07
2018-10-05T20:04:04.271Z,14.07
2018-10-05T20:06:33.511Z,14.01
2018-10-05T20:09:02.715Z,13.97
2018-10-05T20:11:32.051Z,14.02
2018-10-05T20:14:01.249Z,13.94
2018-10-05T20:16:30.552Z,13.88
2018-10-05T20:18:59.796Z,13.81
2018-10-05T20:21:29.073Z,13.78
2018-10-05T20:23:58.524Z,13.74
2018-10-05T20:26:27.817Z,13.75
2018-10-05T20:28:57.093Z,13.74
2018-10-05T20:31:26.425Z,13.68
2018-10-05T20:33:56.309Z,13.69
2018-10-05T20:36:28.557Z,13.76
2018-10-05T20:38:57.785Z,13.67
2018-10-05T20:41:26.933Z,13.57
2018-10-05T20:43:56.155Z,13.53
2018-10-05T20:46:25.482Z,13.42
2018-10-05T20:48:54.680Z,13.31
2018-10-05T20:51:23.993Z,13.31
2018-10-05T20:53:53.467Z,13.29
2018-10-05T20:56:22.727Z,13.27
2018-10-05T20:58:51.986Z,13.23
2018-10-05T21:01:21.316Z,13.20
2018-10-05T21:03:50.514Z,13.17
2018-10-05T21:06:19.794Z,13.15
2018-10-05T21:08:49.009Z,13.12
2018-10-05T21:11:18.460Z,13.28
2018-10-05T21:13:47.776Z,13.29
2018-10-05T21:16:16.967Z,13.25
2018-10-05T21:18:46.226Z,13.18
2018-10-05T21:21:16.212Z,13.23
2018-10-05T21:23:45.455Z,13.21
2018-10-05T21:26:15.127Z,13.08
2018-10-05T21:28:44.327Z,13.07
2018-10-05T21:31:13.774Z,12.91
2018-10-05T21:33:42.949Z,12.90
2018-10-05T21:36:12.425Z,12.94
2018-10-05T21:38:41.676Z,12.82
2018-10-05T21:41:11.470Z,12.71
2018-10-05T21:43:40.696Z,12.62
2018-10-05T21:46:09.951Z,12.57
2018-10-05T21:48:39.153Z,12.61
2018-10-05T21:51:08.467Z,12.55
2018-10-05T21:53:37.665Z,12.49
2018-10-05T21:56:06.912Z,12.39
2018-10-05T21:58:36.150Z,12.34
2018-10-05T22:01:07.035Z,12.31
2018-10-05T22:03:37.637Z,12.26
2018-10-05T22:06:06.892Z,12.21
2018-10-05T22:08:37.622Z,12.09
2018-10-05T22:11:06.985Z,12.09
2018-10-05T22:13:36.254Z,12.09
2018-10-05T22:16:05.487Z,11.97
2018-10-05T22:18:34.685Z,11.96
2018-10-05T22:21:03.944Z,12.09
2018-10-05T22:23:33.174Z,12.02
2018-10-05T22:26:02.439Z,11.96
2018-10-05T22:28:31.638Z,11.93
2018-10-05T22:31:00.880Z,11.94
2018-10-05T22:33:30.059Z,11.84
2018-10-05T22:35:59.301Z,11.85
2018-10-05T22:38:28.529Z,11.88
2018-10-05T22:40:57.773Z,11.79
2018-10-05T22:43:26.985Z,11.81
2018-10-05T22:45:56.251Z,11.84
2018-10-05T22:48:25.451Z,11.83
2018-10-05T22:50:54.721Z,11.82
2018-10-05T22:53:23.928Z,11.74
2018-10-05T22:55:53.297Z,11.71
2018-10-05T22:58:22.520Z,11.69
2018-10-05T23:00:51.947Z,11.67
2018-10-05T23:03:21.172Z,11.66
2018-10-05T23:05:50.503Z,11.53
2018-10-05T23:08:19.687Z,11.61
2018-10-05T23:10:48.983Z,11.52
2018-10-05T23:13:18.196Z,11.49
2018-10-05T23:15:47.485Z,11.38
2018-10-05T23:18:16.816Z,11.42
2018-10-05T23:20:46.080Z,11.38
2018-10-05T23:23:15.525Z,11.37
2018-10-05T23:25:44.768Z,11.34
2018-10-05T23:28:14.564Z,11.40
2018-10-05T23:30:43.784Z,11.31
2018-10-05T23:33:12.984Z,11.26
2018-10-05T23:35:42.307Z,11.21
2018-10-05T23:38:11.698Z,11.21
2018-10-05T23:40:40.914Z,11.17
2018-10-05T23:43:10.114Z,11.29
2018-10-05T23:45:39.385Z,11.23
2018-10-05T23:48:08.618Z,11.18
2018-10-05T23:50:37.907Z,11.17
2018-10-05T23:53:07.169Z,11.14
2018-10-05T23:55:36.414Z,11.16
2018-10-05T23:58:05.799Z,11.15
